Time;durP1;ratioP1;P1;durP2;ratioP2;P2;SDS_P1;SDS_P2;PMS_P1;PMS_P2;Temp;Humidity;BMP_temperature;BMP_pressure;BME280_temperature;BME280_humidity;BME280_pressure;Samples;Min_cycle;Max_cycle;Signal;HPM_P1;HPM_P2
2023/12/08 00:00:20;;;;;;;20.27;6.25;;;-14.20;62.20;;;;;;4889534;29;20097;-84
2023/12/08 00:02:49;;;;;;;13.20;6.35;;;-14.20;62.20;;;;;;4882639;29;20056;-86
2023/12/08 00:05:18;;;;;;;17.02;6.05;;;-14.20;62.10;;;;;;4878548;29;20056;-85
2023/12/08 00:07:48;;;;;;;12.88;4.55;;;-14.20;62.20;;;;;;4874208;29;20144;-83
2023/12/08 00:10:16;;;;;;;12.10;5.60;;;-14.20;62.20;;;;;;4869659;29;20543;-85
2023/12/08 00:12:45;;;;;;;14.85;5.43;;;-14.20;62.20;;;;;;4861341;29;20604;-85
2023/12/08 00:15:14;;;;;;;24.88;5.80;;;-14.20;62.20;;;;;;4876685;29;20144;-85
2023/12/08 00:17:43;;;;;;;13.18;5.90;;;-14.30;61.90;;;;;;4859911;29;20061;-84
2023/12/08 00:20:12;;;;;;;15.77;5.78;;;-14.30;62.00;;;;;;4875179;29;20060;-83
2023/12/08 00:22:41;;;;;;;12.70;6.05;;;-14.30;62.10;;;;;;4867566;29;20052;-83
2023/12/08 00:25:11;;;;;;;14.27;5.03;;;-14.30;62.20;;;;;;4862457;29;20529;-83
2023/12/08 00:27:38;;;;;;;13.18;5.05;;;-14.30;62.40;;;;;;4891745;29;20060;-84
2023/12/08 00:30:07;;;;;;;15.23;6.40;;;-14.20;62.40;;;;;;4872749;29;20145;-83
2023/12/08 00:32:35;;;;;;;14.13;4.82;;;-14.30;62.10;;;;;;4876841;29;20432;-85
2023/12/08 00:35:03;;;;;;;13.15;5.60;;;-14.30;62.40;;;;;;4866689;29;20056;-85
2023/12/08 00:37:33;;;;;;;13.65;5.55;;;-14.30;62.40;;;;;;4868138;29;20053;-85
2023/12/08 00:40:05;;;;;;;21.17;6.80;;;-14.30;62.40;;;;;;4870833;29;20053;-84
2023/12/08 00:42:33;;;;;;;13.68;5.85;;;-14.30;62.40;;;;;;4868324;29;20805;-86
2023/12/08 00:45:01;;;;;;;11.77;5.78;;;-14.30;62.30;;;;;;4862362;29;20104;-86
2023/12/08 00:47:29;;;;;;;9.27;4.68;;;-14.30;62.50;;;;;;4876045;29;20074;-87
2023/12/08 00:49:57;;;;;;;12.85;5.10;;;-14.30;62.50;;;;;;4878341;29;20053;-87
2023/12/08 00:52:25;;;;;;;10.75;4.40;;;-14.20;62.60;;;;;;4873986;29;20072;-86
2023/12/08 00:54:52;;;;;;;10.38;4.82;;;-14.20;62.70;;;;;;4887195;29;20442;-84
2023/12/08 00:57:21;;;;;;;15.60;6.30;;;-14.20;62.70;;;;;;4877184;29;20063;-83
2023/12/08 00:59:49;;;;;;;14.73;5.82;;;-14.20;62.60;;;;;;4860837;29;20089;-83
2023/12/08 01:02:17;;;;;;;12.75;5.38;;;-14.20;62.50;;;;;;4854452;29;20053;-85
2023/12/08 01:04:45;;;;;;;15.48;6.03;;;-14.10;62.70;;;;;;4868666;29;20076;-83
2023/12/08 01:07:12;;;;;;;11.73;4.75;;;-14.10;62.60;;;;;;4872445;29;20045;-86
2023/12/08 01:09:40;;;;;;;12.32;5.38;;;-14.20;62.60;;;;;;4875680;29;20125;-85
2023/12/08 01:12:08;;;;;;;9.48;4.07;;;-14.20;62.70;;;;;;4845138;29;20044;-84
2023/12/08 01:14:37;;;;;;;17.48;6.45;;;-14.20;62.70;;;;;;4869993;29;20052;-84
2023/12/08 01:17:05;;;;;;;15.13;5.45;;;-14.20;62.50;;;;;;4883658;29;20056;-86
2023/12/08 01:19:33;;;;;;;10.88;5.43;;;-14.20;62.40;;;;;;4873613;29;20049;-87
2023/12/08 01:22:01;;;;;;;20.48;6.35;;;-14.30;62.40;;;;;;4882033;29;20053;-86
2023/12/08 01:24:28;;;;;;;9.30;4.60;;;-14.30;62.60;;;;;;4872497;29;20060;-86
2023/12/08 01:26:56;;;;;;;11.32;5.13;;;-14.40;62.50;;;;;;4883535;29;20147;-86
2023/12/08 01:29:24;;;;;;;17.60;6.70;;;-14.30;62.70;;;;;;4880846;29;20053;-87
2023/12/08 01:31:54;;;;;;;13.40;5.82;;;-14.40;62.50;;;;;;4875895;29;20069;-86
2023/12/08 01:34:21;;;;;;;13.20;6.00;;;-14.40;62.40;;;;;;4844443;29;20049;-88
2023/12/08 01:36:50;;;;;;;12.45;5.38;;;-14.50;62.20;;;;;;4887390;29;20108;-87
2023/12/08 01:39:18;;;;;;;13.15;5.00;;;-14.50;62.40;;;;;;4861453;29;20082;-85
2023/12/08 01:41:50;;;;;;;10.77;5.55;;;-14.60;62.40;;;;;;4878015;29;20049;-85
2023/12/08 01:44:18;;;;;;;19.33;6.45;;;-14.50;62.60;;;;;;4886555;29;20072;-84
2023/12/08 01:46:47;;;;;;;13.38;6.25;;;-14.50;62.60;;;;;;4863907;29;20376;-86
2023/12/08 01:49:19;;;;;;;18.45;6.05;;;-14.60;62.50;;;;;;4878506;29;20059;-86
2023/12/08 01:51:48;;;;;;;14.88;5.88;;;-14.60;62.80;;;;;;4883447;29;20048;-87
2023/12/08 01:54:16;;;;;;;12.70;6.00;;;-14.60;62.60;;;;;;4873945;29;20645;-87
2023/12/08 01:56:44;;;;;;;12.65;6.25;;;-14.70;62.60;;;;;;4870796;29;20052;-87
2023/12/08 01:59:13;;;;;;;16.83;6.45;;;-14.70;62.90;;;;;;4885704;29;20056;-87
2023/12/08 02:01:40;;;;;;;9.00;4.72;;;-14.70;63.20;;;;;;4862799;29;20149;-86
2023/12/08 02:04:08;;;;;;;16.05;5.45;;;-14.70;63.20;;;;;;4878860;29;20056;-86
2023/12/08 02:06:38;;;;;;;19.58;5.60;;;-14.60;63.10;;;;;;4884783;29;20175;-87
2023/12/08 02:09:07;;;;;;;17.02;6.32;;;-14.70;62.80;;;;;;4880293;29;20056;-90
2023/12/08 02:11:36;;;;;;;13.87;5.90;;;-14.70;62.40;;;;;;4874079;29;20053;-87
2023/12/08 02:14:04;;;;;;;21.77;6.53;;;-14.70;62.40;;;;;;4862231;29;20055;-87
2023/12/08 02:16:40;;;;;;;12.93;5.20;;;-14.80;62.40;;;;;;4871492;29;20052;-88
2023/12/08 02:19:13;;;;;;;13.20;5.43;;;-14.80;62.50;;;;;;4877839;29;20381;-87
2023/12/08 02:21:43;;;;;;;12.65;4.70;;;-14.80;62.50;;;;;;4896728;29;20112;-87
2023/12/08 02:24:12;;;;;;;17.40;6.40;;;-14.80;62.60;;;;;;4894218;29;20048;-86
2023/12/08 02:26:45;;;;;;;17.00;5.18;;;-14.80;62.50;;;;;;4895318;29;20188;-87
2023/12/08 02:29:13;;;;;;;15.75;6.18;;;-14.80;62.50;;;;;;4885946;29;20267;-88
2023/12/08 02:31:46;;;;;;;20.42;6.45;;;-14.90;62.50;;;;;;4879256;29;20053;-87
2023/12/08 02:34:17;;;;;;;16.57;5.17;;;-14.90;62.50;;;;;;4883053;29;20067;-90
2023/12/08 02:36:47;;;;;;;14.37;5.17;;;-14.90;62.40;;;;;;4885676;29;20139;-86
2023/12/08 02:39:18;;;;;;;12.90;5.20;;;-15.00;62.40;;;;;;4854431;29;20148;-90
2023/12/08 02:41:47;;;;;;;12.80;6.07;;;-15.00;62.50;;;;;;4865978;29;20109;-87
2023/12/08 02:44:14;;;;;;;15.70;6.03;;;-14.90;62.50;;;;;;4883158;29;20505;-86
2023/12/08 02:46:43;;;;;;;15.65;5.35;;;-14.90;62.50;;;;;;4860138;29;20057;-87
2023/12/08 02:49:11;;;;;;;15.18;6.13;;;-15.00;62.30;;;;;;4869444;29;20151;-84
2023/12/08 02:51:39;;;;;;;15.82;6.07;;;-15.00;62.10;;;;;;4880332;29;20049;-86
2023/12/08 02:54:07;;;;;;;18.48;6.15;;;-15.00;61.70;;;;;;4876913;29;20075;-88
2023/12/08 02:56:36;;;;;;;12.50;5.05;;;-15.00;61.70;;;;;;4884359;29;20083;-88
2023/12/08 02:59:03;;;;;;;13.10;5.07;;;-15.00;61.60;;;;;;4878556;29;20060;-86
2023/12/08 03:01:31;;;;;;;16.38;5.60;;;-15.10;61.50;;;;;;4875771;29;20080;-88
2023/12/08 03:03:59;;;;;;;18.73;6.05;;;-15.10;61.30;;;;;;4876713;29;20063;-86
2023/12/08 03:06:27;;;;;;;15.40;5.95;;;-15.10;61.30;;;;;;4886609;29;20532;-86
2023/12/08 03:08:55;;;;;;;23.10;6.75;;;-15.20;61.20;;;;;;4886510;29;20135;-88
2023/12/08 03:11:23;;;;;;;18.77;6.80;;;-15.20;61.20;;;;;;4860254;29;20429;-89
2023/12/08 03:13:52;;;;;;;22.08;6.85;;;-15.20;61.20;;;;;;4876600;29;20052;-87
2023/12/08 03:16:19;;;;;;;15.70;6.07;;;-15.20;61.40;;;;;;4866289;29;20109;-87
2023/12/08 03:18:47;;;;;;;13.43;6.32;;;-15.20;61.70;;;;;;4878206;29;20317;-87
2023/12/08 03:21:22;;;;;;;16.67;6.10;;;-15.20;62.00;;;;;;4889372;29;20057;-86
2023/12/08 03:23:50;;;;;;;20.67;7.07;;;-15.20;62.30;;;;;;4878782;29;20084;-86
2023/12/08 03:26:21;;;;;;;11.48;4.03;;;-15.20;62.10;;;;;;4875534;29;20150;-87
2023/12/08 03:28:49;;;;;;;16.48;6.15;;;-15.20;62.20;;;;;;4875538;29;20049;-87
2023/12/08 03:31:30;;;;;;;15.48;5.78;;;-15.20;62.50;;;;;;4884564;29;20495;-87
2023/12/08 03:33:58;;;;;;;17.77;5.28;;;-15.20;62.90;;;;;;4874576;29;20059;-87
2023/12/08 03:36:25;;;;;;;15.32;6.10;;;-15.10;63.30;;;;;;4877375;29;20053;-88
2023/12/08 03:38:53;;;;;;;18.17;6.68;;;-15.20;63.50;;;;;;4878450;29;20172;-87
2023/12/08 03:41:24;;;;;;;13.47;5.30;;;-15.20;63.90;;;;;;4872129;29;20048;-87
2023/12/08 03:46:51;;;;;;;18.52;7.20;;;-15.20;64.50;;;;;;4912972;23;20151;-86
2023/12/08 03:49:19;;;;;;;18.10;6.72;;;-15.20;64.80;;;;;;4880216;29;20051;-86
2023/12/08 03:51:47;;;;;;;15.93;5.82;;;-15.10;65.20;;;;;;4896463;29;20048;-88
2023/12/08 03:54:14;;;;;;;24.83;6.97;;;-15.10;65.70;;;;;;4913690;29;20052;-90
2023/12/08 03:56:42;;;;;;;32.93;8.77;;;-15.00;66.20;;;;;;4911430;29;20611;-91
2023/12/08 03:59:12;;;;;;;29.60;9.15;;;-15.00;66.50;;;;;;4895910;29;20044;-88
2023/12/08 04:01:42;;;;;;;24.40;7.82;;;-15.00;67.70;;;;;;4899461;29;20123;-91
2023/12/08 04:04:12;;;;;;;31.60;9.63;;;-15.00;67.30;;;;;;4909473;29;20090;-89
2023/12/08 04:06:55;;;;;;;34.10;10.60;;;-14.90;67.60;;;;;;4902484;29;20056;-85
2023/12/08 04:09:43;;;;;;;28.75;9.23;;;-14.80;67.90;;;;;;4864062;29;20064;-87
2023/12/08 04:12:11;;;;;;;27.70;8.55;;;-14.70;68.00;;;;;;4894346;29;20063;-88
2023/12/08 04:14:39;;;;;;;37.05;9.48;;;-14.60;68.20;;;;;;4910920;29;20052;-84
2023/12/08 04:17:10;;;;;;;34.30;8.80;;;-14.50;68.20;;;;;;4909872;29;20159;-86
2023/12/08 04:19:46;;;;;;;35.58;9.35;;;-14.40;68.00;;;;;;4909483;29;20576;-82
2023/12/08 04:22:14;;;;;;;35.95;8.55;;;-14.40;68.00;;;;;;4909303;29;20146;-80
2023/12/08 04:24:44;;;;;;;26.90;8.25;;;-14.30;68.10;;;;;;4906590;29;20070;-82
2023/12/08 04:27:29;;;;;;;26.52;8.10;;;-14.30;68.10;;;;;;4910211;29;20600;-85
2023/12/08 04:30:00;;;;;;;25.00;8.30;;;-14.30;68.30;;;;;;4913625;29;20040;-83
2023/12/08 04:32:29;;;;;;;28.38;8.38;;;-14.20;68.40;;;;;;4912848;29;20115;-83
2023/12/08 04:34:58;;;;;;;29.60;8.02;;;-14.20;68.40;;;;;;4910240;29;20044;-84
2023/12/08 04:37:31;;;;;;;29.48;7.70;;;-14.10;68.40;;;;;;4912242;29;22557;-84
2023/12/08 04:39:59;;;;;;;29.30;8.55;;;-14.00;68.30;;;;;;4911420;29;20103;-84
2023/12/08 04:42:57;;;;;;;;;;;;;;;;;;;;;
2023/12/08 04:45:59;;;;;;;21.70;7.28;;;-14.00;68.00;;;;;;4877343;29;20100;-83
2023/12/08 04:48:42;;;;;;;31.00;9.77;;;-13.90;67.90;;;;;;4900897;29;20155;-81
2023/12/08 04:51:23;;;;;;;23.83;8.85;;;-13.80;67.60;;;;;;4893570;29;20052;-82
2023/12/08 04:53:50;;;;;;;28.52;8.88;;;-13.70;67.60;;;;;;4891893;29;20513;-85
2023/12/08 04:56:18;;;;;;;21.90;7.55;;;-13.70;67.30;;;;;;4901664;29;20048;-81
2023/12/08 04:58:50;;;;;;;37.63;10.13;;;-13.70;67.30;;;;;;4900331;29;20076;-81
2023/12/08 05:01:17;;;;;;;27.42;9.23;;;-13.70;67.30;;;;;;4844484;29;20053;-83
2023/12/08 05:03:45;;;;;;;26.67;9.13;;;-13.70;67.30;;;;;;4844438;29;20053;-86
2023/12/08 05:06:13;;;;;;;26.67;7.57;;;-13.60;67.10;;;;;;4838777;29;20053;-82
2023/12/08 05:08:44;;;;;;;27.65;9.43;;;-13.60;67.00;;;;;;4850376;29;20148;-82
2023/12/08 05:11:12;;;;;;;31.00;9.40;;;-13.60;66.60;;;;;;4829680;29;20092;-82
2023/12/08 05:13:40;;;;;;;30.90;10.68;;;-13.50;66.60;;;;;;4804852;29;20044;-81
2023/12/08 05:16:13;;;;;;;34.55;10.77;;;-13.60;66.40;;;;;;4808971;29;20600;-80
2023/12/08 05:18:41;;;;;;;43.15;12.30;;;-13.50;66.40;;;;;;4765743;29;20524;-83
2023/12/08 05:21:09;;;;;;;29.00;9.05;;;-13.50;66.60;;;;;;4804917;29;20054;-79
2023/12/08 05:23:37;;;;;;;23.27;8.63;;;-13.50;66.50;;;;;;4844376;29;20505;-81
2023/12/08 05:26:07;;;;;;;24.52;9.55;;;-13.50;66.70;;;;;;4880402;29;20150;-80
2023/12/08 05:28:37;;;;;;;18.25;8.20;;;-13.40;66.90;;;;;;4905844;29;20064;-79
2023/12/08 05:31:06;;;;;;;30.13;9.48;;;-13.40;66.80;;;;;;4844713;29;20053;-81
2023/12/08 05:33:34;;;;;;;31.08;9.98;;;-13.40;66.70;;;;;;4883343;29;20101;-80
2023/12/08 05:36:02;;;;;;;22.65;8.13;;;-13.40;66.90;;;;;;4886121;29;20056;-80
2023/12/08 05:38:30;;;;;;;24.67;9.13;;;-13.40;66.90;;;;;;4876592;29;20112;-81
2023/12/08 05:40:58;;;;;;;28.58;8.82;;;-13.30;67.10;;;;;;4887837;29;20076;-81
2023/12/08 05:43:29;;;;;;;27.05;9.60;;;-13.40;66.80;;;;;;4881416;29;20160;-80
2023/12/08 05:45:57;;;;;;;29.05;7.30;;;-13.40;66.90;;;;;;4776563;29;20066;-82
2023/12/08 05:48:25;;;;;;;24.65;8.27;;;-13.40;67.00;;;;;;4819348;29;20527;-80
2023/12/08 05:50:53;;;;;;;24.92;9.73;;;-13.40;67.10;;;;;;4779166;29;20578;-81
2023/12/08 05:53:20;;;;;;;25.77;7.95;;;-13.30;67.10;;;;;;4765226;29;20067;-80
2023/12/08 05:55:48;;;;;;;24.50;7.60;;;-13.30;67.00;;;;;;4765111;30;20051;-81
2023/12/08 05:58:16;;;;;;;22.30;9.18;;;-13.30;66.90;;;;;;4757826;30;20052;-80
2023/12/08 06:00:45;;;;;;;18.95;7.28;;;-13.30;66.80;;;;;;4753298;30;20049;-82
2023/12/08 06:03:13;;;;;;;29.20;9.05;;;-13.40;66.90;;;;;;4736481;30;20138;-81
2023/12/08 06:15:48;;;;;;;20.20;7.35;;;-13.40;66.90;;;;;;5066755;27;1368532;-82
2023/12/08 06:18:18;;;;;;;29.15;10.18;;;-13.40;66.90;;;;;;5082228;28;20055;-82
2023/12/08 06:20:45;;;;;;;21.60;8.27;;;-13.30;66.80;;;;;;5065102;28;20052;-81
2023/12/08 06:23:18;;;;;;;27.60;8.82;;;-13.30;66.90;;;;;;5065103;28;20449;-82
2023/12/08 06:25:45;;;;;;;25.00;8.38;;;-13.30;66.70;;;;;;5065993;28;20044;-82
2023/12/08 06:28:13;;;;;;;34.85;8.90;;;-13.20;66.60;;;;;;5064681;28;20420;-82
2023/12/08 06:30:42;;;;;;;21.08;7.78;;;-13.30;66.20;;;;;;5064418;28;20044;-82
2023/12/08 06:33:13;;;;;;;24.83;8.35;;;-13.20;66.00;;;;;;5064254;28;20041;-81
2023/12/08 06:35:40;;;;;;;28.60;8.15;;;-13.20;65.90;;;;;;5079235;28;20044;-81
2023/12/08 06:38:10;;;;;;;15.23;6.70;;;-13.20;65.60;;;;;;5086478;28;20044;-82
2023/12/08 06:40:37;;;;;;;21.02;7.03;;;-13.30;65.30;;;;;;5084699;28;20143;-81
2023/12/08 06:43:05;;;;;;;21.88;7.22;;;-13.30;65.10;;;;;;5084716;28;20076;-81
2023/12/08 06:45:33;;;;;;;19.67;8.38;;;-13.30;65.00;;;;;;5085668;28;20087;-82
2023/12/08 06:48:03;;;;;;;20.95;6.68;;;-13.50;64.50;;;;;;5084895;28;20454;-82
2023/12/08 06:50:31;;;;;;;25.33;8.13;;;-13.50;64.50;;;;;;5085323;28;20059;-81
2023/12/08 06:52:58;;;;;;;23.55;6.72;;;-13.50;64.70;;;;;;5067436;28;20076;-82
2023/12/08 06:55:26;;;;;;;16.15;7.20;;;-13.50;64.80;;;;;;5066543;28;20054;-82
2023/12/08 06:57:53;;;;;;;19.10;7.25;;;-13.40;64.70;;;;;;5067261;28;20059;-82
2023/12/08 07:00:21;;;;;;;21.50;7.78;;;-13.40;64.60;;;;;;5081222;28;20150;-82
2023/12/08 07:02:49;;;;;;;20.02;6.90;;;-13.40;64.40;;;;;;5063552;28;20055;-82
2023/12/08 07:05:19;;;;;;;24.83;8.93;;;-13.40;64.10;;;;;;5063303;28;20044;-81
2023/12/08 07:07:48;;;;;;;23.98;7.97;;;-13.30;64.10;;;;;;5065363;28;20586;-82
2023/12/08 07:10:16;;;;;;;19.25;7.10;;;-13.40;64.10;;;;;;5082107;28;20092;-82
2023/12/08 07:12:44;;;;;;;20.15;7.05;;;-13.30;64.00;;;;;;5084534;28;20529;-82
2023/12/08 07:15:12;;;;;;;17.42;6.32;;;-13.30;63.90;;;;;;5085184;28;20060;-81
2023/12/08 07:17:40;;;;;;;28.15;7.53;;;-13.40;63.60;;;;;;5078611;28;20056;-83
2023/12/08 07:20:09;;;;;;;21.10;6.47;;;-13.40;63.60;;;;;;5078672;28;20090;-83
2023/12/08 07:22:39;;;;;;;22.30;8.02;;;-13.40;63.20;;;;;;5076225;28;20405;-81
2023/12/08 07:25:10;;;;;;;17.75;6.88;;;-13.40;63.20;;;;;;5071343;28;20044;-84
2023/12/08 07:27:38;;;;;;;17.88;7.55;;;-13.40;63.40;;;;;;5062411;28;20125;-83
2023/12/08 07:30:08;;;;;;;17.88;7.03;;;-13.40;63.00;;;;;;5061319;28;20037;-82
2023/12/08 07:32:42;;;;;;;18.35;6.38;;;-13.30;63.20;;;;;;5060581;28;20420;-82
2023/12/08 07:35:10;;;;;;;22.48;8.15;;;-13.20;63.30;;;;;;5059691;28;20140;-83
2023/12/08 07:37:41;;;;;;;18.73;6.38;;;-13.20;63.20;;;;;;5059416;28;20055;-80
2023/12/08 07:40:11;;;;;;;20.80;7.85;;;-13.10;63.00;;;;;;5061001;28;20090;-85
2023/12/08 07:42:38;;;;;;;18.77;8.10;;;-13.10;62.70;;;;;;5062748;28;21186;-82
2023/12/08 07:45:08;;;;;;;21.02;7.28;;;-13.10;62.60;;;;;;5045077;28;20060;-82
2023/12/08 07:47:36;;;;;;;4.75;2.72;;;-13.10;62.40;;;;;;5060301;28;20436;-84
2023/12/08 07:50:04;;;;;;;22.45;7.72;;;-13.00;62.20;;;;;;5060997;28;20911;-82
2023/12/08 07:52:34;;;;;;;19.52;6.68;;;-12.90;62.10;;;;;;5062613;28;20060;-82
2023/12/08 07:55:05;;;;;;;19.67;7.40;;;-13.00;62.10;;;;;;5067960;28;20044;-81
2023/12/08 07:57:33;;;;;;;20.80;7.65;;;-12.90;62.30;;;;;;5058503;28;20067;-80
2023/12/08 08:00:03;;;;;;;22.25;7.88;;;-12.90;62.00;;;;;;5061625;28;20070;-80
2023/12/08 08:02:32;;;;;;;19.80;7.13;;;-12.80;62.20;;;;;;5068843;28;20583;-80
2023/12/08 08:05:04;;;;;;;14.55;5.82;;;-12.80;62.10;;;;;;5060168;28;20048;-81
2023/12/08 08:07:32;;;;;;;17.88;7.28;;;-12.70;62.00;;;;;;5059746;28;20045;-81
2023/12/08 08:10:00;;;;;;;28.58;7.93;;;-12.70;61.90;;;;;;5059244;28;20114;-83
2023/12/08 08:12:32;;;;;;;21.67;7.50;;;-12.70;61.90;;;;;;5060749;28;20508;-80
2023/12/08 08:14:59;;;;;;;14.18;6.93;;;-12.70;61.90;;;;;;5069366;28;20051;-82
2023/12/08 08:17:27;;;;;;;13.82;7.20;;;-12.70;61.90;;;;;;5061474;28;20132;-82
2023/12/08 08:19:54;;;;;;;17.30;7.93;;;-12.60;61.80;;;;;;5050080;28;20090;-83
2023/12/08 08:22:22;;;;;;;25.20;8.77;;;-12.60;61.80;;;;;;5047626;28;20045;-81
2023/12/08 08:24:50;;;;;;;20.90;8.30;;;-12.50;61.70;;;;;;5031942;28;20040;-81
2023/12/08 08:27:18;;;;;;;23.40;7.35;;;-12.50;61.60;;;;;;5031976;28;20406;-82
2023/12/08 08:29:47;;;;;;;23.40;8.18;;;-12.50;61.70;;;;;;5050202;28;20041;-84
2023/12/08 08:32:17;;;;;;;22.35;8.52;;;-12.50;61.70;;;;;;5031896;28;20045;-82
2023/12/08 08:34:45;;;;;;;20.15;7.40;;;-12.40;61.60;;;;;;5049652;28;20076;-81
2023/12/08 08:37:13;;;;;;;19.50;6.80;;;-12.40;61.40;;;;;;5048832;28;20044;-81
2023/12/08 08:39:40;;;;;;;18.67;7.60;;;-12.40;61.00;;;;;;5007842;28;20054;-79
2023/12/08 08:42:08;;;;;;;16.58;7.60;;;-12.40;61.20;;;;;;5031093;28;20386;-80
2023/12/08 08:44:36;;;;;;;17.48;6.07;;;-12.40;61.20;;;;;;5012117;28;20413;-80
2023/12/08 08:47:06;;;;;;;18.90;6.88;;;-12.30;61.30;;;;;;5013044;28;20131;-79
2023/12/08 08:49:34;;;;;;;18.85;7.70;;;-12.30;61.20;;;;;;5030962;28;20059;-83
2023/12/08 08:52:02;;;;;;;15.45;7.97;;;-12.30;61.10;;;;;;5012088;28;20483;-82
2023/12/08 08:54:30;;;;;;;21.02;7.60;;;-12.20;60.90;;;;;;5031058;28;20060;-79
2023/12/08 08:56:57;;;;;;;23.33;8.50;;;-12.20;61.00;;;;;;5048671;28;20056;-80
2023/12/08 08:59:25;;;;;;;16.70;7.13;;;-12.20;60.90;;;;;;5017004;28;20050;-81
2023/12/08 09:01:53;;;;;;;18.15;8.20;;;-12.10;61.00;;;;;;5010310;28;20041;-82
2023/12/08 09:04:22;;;;;;;21.88;8.70;;;-12.00;60.90;;;;;;5014809;28;21189;-80
2023/12/08 09:06:49;;;;;;;19.88;8.07;;;-11.90;60.70;;;;;;5031422;28;20041;-81
2023/12/08 09:09:17;;;;;;;21.45;8.77;;;-12.00;60.70;;;;;;5030998;28;20045;-80
2023/12/08 09:11:45;;;;;;;20.75;7.95;;;-11.90;60.70;;;;;;5031608;28;20416;-81
2023/12/08 09:14:12;;;;;;;16.45;7.38;;;-11.90;60.30;;;;;;4996495;28;20048;-81
2023/12/08 09:16:40;;;;;;;19.17;8.63;;;-11.90;60.00;;;;;;5012829;28;20052;-80
2023/12/08 09:19:08;;;;;;;22.10;9.23;;;-11.80;61.00;;;;;;5047786;28;20499;-79
2023/12/08 09:21:37;;;;;;;16.08;7.13;;;-11.80;60.10;;;;;;5062517;28;20048;-80
2023/12/08 09:24:05;;;;;;;25.40;8.88;;;-11.80;60.10;;;;;;5065061;28;20048;-81
2023/12/08 09:26:33;;;;;;;18.83;7.75;;;-11.70;60.20;;;;;;5066455;28;20048;-80
2023/12/08 09:29:02;;;;;;;19.58;7.65;;;-11.70;59.90;;;;;;5048495;28;20076;-80
2023/12/08 09:31:29;;;;;;;16.95;8.52;;;-11.70;60.00;;;;;;5044951;28;20048;-80
2023/12/08 09:33:58;;;;;;;21.42;9.27;;;-11.70;60.00;;;;;;5054646;28;20033;-80
2023/12/08 09:36:26;;;;;;;14.35;6.35;;;-11.60;60.10;;;;;;5056211;28;20416;-81
2023/12/08 09:38:55;;;;;;;14.65;6.95;;;-11.70;60.00;;;;;;5057194;28;20053;-80
2023/12/08 09:41:23;;;;;;;20.63;8.00;;;-11.70;60.00;;;;;;5062445;28;20048;-80
2023/12/08 09:44:01;;;;;;;29.58;8.45;;;-11.60;60.10;;;;;;5068009;28;20569;-82
2023/12/08 09:46:30;;;;;;;22.48;6.85;;;-11.70;60.20;;;;;;5067653;28;20052;-82
2023/12/08 09:49:00;;;;;;;20.98;8.75;;;-11.60;60.30;;;;;;5070302;28;20059;-80
2023/12/08 09:51:29;;;;;;;19.23;7.32;;;-11.50;60.30;;;;;;5069514;28;20056;-80
2023/12/08 09:53:58;;;;;;;16.65;6.97;;;-11.50;60.10;;;;;;5068575;28;20474;-80
2023/12/08 09:56:33;;;;;;;19.30;6.70;;;-11.40;60.10;;;;;;5083809;28;20079;-83
2023/12/08 09:59:01;;;;;;;20.10;7.40;;;-11.50;60.00;;;;;;5066580;28;20118;-80
2023/12/08 10:01:29;;;;;;;21.48;7.30;;;-11.50;60.00;;;;;;5056615;28;20076;-80
2023/12/08 10:03:58;;;;;;;19.15;7.00;;;-11.40;60.20;;;;;;5048366;28;20076;-80
2023/12/08 10:06:28;;;;;;;22.60;9.02;;;-11.50;59.90;;;;;;5047149;28;20052;-81
2023/12/08 10:08:58;;;;;;;15.23;6.93;;;-11.50;60.00;;;;;;5030468;28;20052;-80
2023/12/08 10:11:25;;;;;;;20.27;8.80;;;-11.50;60.10;;;;;;5048312;28;20102;-82
2023/12/08 10:13:54;;;;;;;20.65;8.68;;;-11.50;60.10;;;;;;5048469;28;20051;-81
2023/12/08 10:16:22;;;;;;;23.20;9.10;;;-11.50;60.40;;;;;;5054748;28;20080;-81
2023/12/08 10:18:50;;;;;;;21.45;9.20;;;-11.40;60.80;;;;;;5046871;28;20045;-80
2023/12/08 10:21:20;;;;;;;19.25;8.90;;;-11.40;60.60;;;;;;5047835;28;20122;-80
2023/12/08 10:23:48;;;;;;;26.08;7.90;;;-11.30;60.60;;;;;;5030411;28;20121;-80
2023/12/08 10:26:18;;;;;;;18.45;8.20;;;-11.30;60.50;;;;;;5047006;28;20075;-81
2023/12/08 10:28:45;;;;;;;21.02;8.70;;;-11.30;60.70;;;;;;5030267;28;20405;-80
2023/12/08 10:31:14;;;;;;;24.20;9.00;;;-11.30;60.50;;;;;;5050263;28;20128;-81
2023/12/08 10:33:42;;;;;;;24.17;8.65;;;-11.30;60.60;;;;;;5058554;28;20056;-80
2023/12/08 10:36:10;;;;;;;14.80;6.55;;;-11.20;60.50;;;;;;5048986;28;20063;-80
2023/12/08 10:38:38;;;;;;;21.05;8.18;;;-11.30;60.10;;;;;;5047787;28;20076;-82
2023/12/08 10:41:06;;;;;;;17.45;8.07;;;-11.30;60.00;;;;;;5048100;28;20491;-81
2023/12/08 10:43:39;;;;;;;20.42;7.10;;;-11.40;59.80;;;;;;5047882;28;20128;-82
2023/12/08 10:46:08;;;;;;;16.98;6.53;;;-11.40;60.00;;;;;;5046763;28;20045;-84
2023/12/08 10:48:37;;;;;;;16.55;6.55;;;-11.40;60.10;;;;;;5067497;28;20048;-82
2023/12/08 10:51:06;;;;;;;19.83;7.90;;;-11.40;60.00;;;;;;5067551;28;20189;-81
2023/12/08 10:53:34;;;;;;;16.25;7.53;;;-11.30;60.00;;;;;;5067579;28;20509;-83
2023/12/08 10:56:06;;;;;;;15.65;6.78;;;-11.40;59.90;;;;;;5050912;28;20053;-81
2023/12/08 10:58:37;;;;;;;16.90;6.80;;;-11.40;60.00;;;;;;5048024;28;20049;-82
2023/12/08 11:01:12;;;;;;;16.15;7.53;;;-11.40;60.10;;;;;;5054892;28;20079;-81
2023/12/08 11:03:42;;;;;;;17.45;6.60;;;-11.40;60.90;;;;;;5070301;28;20291;-84
2023/12/08 11:06:13;;;;;;;21.30;8.60;;;-11.40;60.20;;;;;;5061797;28;20047;-80
2023/12/08 11:08:48;;;;;;;15.88;6.50;;;-11.40;60.10;;;;;;5070916;28;20052;-81
2023/12/08 11:11:26;;;;;;;;;;;-11.50;60.00;;;;;;5061840;28;20052;-81
2023/12/08 11:14:06;;;;;;;14.38;5.78;;;-11.50;60.00;;;;;;5070068;28;19924;-79
2023/12/08 11:16:50;;;;;;;14.65;6.55;;;-11.50;60.10;;;;;;5063816;28;20052;-81
2023/12/08 11:19:19;;;;;;;22.80;8.80;;;-11.40;60.30;;;;;;5066778;28;20051;-80
2023/12/08 11:21:47;;;;;;;17.35;6.68;;;-11.50;60.20;;;;;;5078595;28;20519;-80
2023/12/08 11:24:19;;;;;;;22.73;7.30;;;-11.40;60.30;;;;;;5063701;28;20044;-80
2023/12/08 11:26:57;;;;;;;16.17;7.43;;;-11.50;60.30;;;;;;5060686;28;20049;-83
2023/12/08 11:29:36;;;;;;;12.75;5.72;;;-11.50;60.30;;;;;;5049938;28;20049;-80
2023/12/08 11:32:13;;;;;;;13.25;6.10;;;-11.50;60.80;;;;;;5060427;28;20569;-81
2023/12/08 11:34:53;;;;;;;14.27;6.85;;;-11.50;60.70;;;;;;5071296;28;20515;-81
2023/12/08 11:37:21;;;;;;;14.35;5.85;;;-11.50;60.90;;;;;;5069436;28;20049;-82
2023/12/08 11:40:00;;;;;;;17.55;7.03;;;-11.50;60.80;;;;;;5072683;28;20119;-82
2023/12/08 11:42:38;;;;;;;14.98;6.82;;;-11.50;61.70;;;;;;5051744;28;20049;-81
2023/12/08 11:45:10;;;;;;;17.02;8.25;;;-11.50;61.00;;;;;;5049815;28;20404;-81
2023/12/08 11:47:45;;;;;;;14.32;6.88;;;-11.50;61.10;;;;;;5064988;28;20182;-79
2023/12/08 11:51:17;;;;;;;;;;;;;;;;;;;;;
2023/12/08 11:55:06;;;;;;;17.20;7.82;;;-11.40;62.10;;;;;;4904301;29;20039;-86
2023/12/08 11:59:16;;;;;;;;;;;;;;;;;;;;;
2023/12/08 12:02:16;;;;;;;15.80;7.22;;;-11.40;61.40;;;;;;4856989;29;20714;-80
2023/12/08 12:05:14;;;;;;;;;;;;;;;;;;;;;
2023/12/08 12:08:39;;;;;;;;;;;;;;;;;;;;;
2023/12/08 12:11:24;;;;;;;16.55;6.15;;;-11.30;61.70;;;;;;5003362;28;20052;-81
2023/12/08 12:13:54;;;;;;;44.38;16.92;;;-11.30;62.00;;;;;;5055104;28;20551;-82
2023/12/08 12:16:23;;;;;;;18.15;8.30;;;-11.30;62.10;;;;;;5062160;28;20127;-81
2023/12/08 12:18:52;;;;;;;14.70;6.68;;;-11.30;62.20;;;;;;5059240;28;20045;-81
2023/12/08 12:21:20;;;;;;;14.60;6.70;;;-11.20;62.50;;;;;;5059991;28;20044;-81
2023/12/08 12:23:48;;;;;;;15.27;7.03;;;-11.20;62.50;;;;;;5059853;28;20087;-80
2023/12/08 12:26:27;;;;;;;19.15;8.07;;;-11.30;62.60;;;;;;5067099;28;20056;-86
2023/12/08 12:28:56;;;;;;;18.42;7.25;;;-11.20;62.90;;;;;;5075801;28;20048;-85
2023/12/08 12:31:48;;;;;;;;;;;;;;;;;;;;;
2023/12/08 12:34:45;;;;;;;17.52;7.40;;;-11.30;62.50;;;;;;5036674;28;20048;-86
2023/12/08 12:37:13;;;;;;;16.15;8.90;;;-11.20;62.90;;;;;;5061018;28;20072;-83
2023/12/08 12:39:41;;;;;;;15.55;7.05;;;-11.30;63.20;;;;;;5061207;28;20045;-92
2023/12/08 12:42:09;;;;;;;17.33;8.07;;;-11.20;63.30;;;;;;5083455;28;20060;-90
2023/12/08 12:44:44;;;;;;;16.17;7.22;;;-11.20;63.20;;;;;;5064824;28;20059;-86
2023/12/08 12:47:24;;;;;;;25.10;8.73;;;-11.10;63.10;;;;;;5060941;28;20048;-86
2023/12/08 12:50:05;;;;;;;24.10;9.07;;;-11.20;63.00;;;;;;5076406;28;20175;-90
2023/12/08 12:52:38;;;;;;;18.73;7.78;;;-11.20;63.20;;;;;;5050402;28;20095;-87
2023/12/08 12:55:24;;;;;;;15.60;6.97;;;-11.20;63.50;;;;;;5058457;28;20052;-87
2023/12/08 12:57:53;;;;;;;26.80;8.40;;;-11.20;63.60;;;;;;5062908;28;20083;-85
2023/12/08 13:00:34;;;;;;;16.08;7.40;;;-11.20;63.60;;;;;;5060161;28;20044;-84
2023/12/08 13:03:09;;;;;;;23.08;7.65;;;-11.20;63.60;;;;;;5062676;28;20045;-84
2023/12/08 13:05:47;;;;;;;14.60;7.32;;;-11.10;63.60;;;;;;5076106;28;20049;-82